Relevés horaires Bierset (Belgique)


Relevés horaires à Bierset - Mardi 13 Nov. 2018
Heure UTC1 Température [°C] Vent [km/h] Hum. [%] Pres.4 [hPa] Visi. [Km] Nébu. [octa] Préc.5 [mm] Cond.
2m. Res. Ros. Dir.2 Vit. Moy. Raf.3
23:00 7.9 6.3 6.2 S 9.3 9.3 13.0 89 1030.2(0.5/3h) 20 0/8 -- --
22:00 8.1 6.9 6.5 SSO 7.4 9.3 14.8 90 1030.2(0.8/3h) 20 0/8 -- --
21:00 8.4 6.9 6.5 SSO 9.3 9.3 14.8 88 1029.9(1.1/3h) 20 0/8 -- --
20:00 8.6 7.5 6.4 SSO 7.4 9.3 14.8 86 1029.6(1.1/3h) 20 0/8 -- --
19:00 8.8 7.7 6.6 SSO 7.4 9.3 13.0 86 1029.3(1.4/3h) 20 1/8 -- --
18:00 9.1 8.1 6.2 SSO 7.4 14.8 22.2 82 1028.8(1.6/3h) 30 0/8 0/12h
--
17:00 9.8 8.5 6.3 SSO 9.3 9.3 13.0 79 1028.4(2.2/3h) 30 2/8 -- --
16:00 9.9 8.6 6.5 SO 9.3 11.1 14.8 79 1027.8(2.0/3h) 30 1/8 -- --
15:00 10.9 9.5 6.8 OSO 11.1 14.8 22.2 76 1026.9(1.6/3h) 30 1/8 -- --
14:00 11.6 9.9 6.3 OSO 14.8 14.8 22.2 70 1026(1.1/3h) 30 2/8 -- --
13:00 12.2 10.6 6.8 SO 14.8 14.8 22.2 70 1025.6(1.3/3h) 25 3/8 -- --
12:00 10.8 9.1 7.5 SO 13.0 18.5 25.9 80 1025.3(1.7/3h) 25 4/8 0/6h
--
11:00 11.5 9.6 7.2 SO 16.7 18.5 25.9 75 1024.9(2.0/3h) 25 5/8 -- --
10:00 11.1 9.1 7.3 SO 16.7 18.5 24.1 77 1024.4(2.0/3h) 25 2/8 -- --
09:00 10.8 9.1 7.7 SO 13.0 16.7 24.1 81 1023.6(2.1/3h) 25 4/8 -- --
08:00 10.2 8.4 8.1 SSO 13.0 14.8 20.4 87 1022.9(2.1/3h) 25 5/8 -- --
07:00 9.7 8.1 7.7 SO 11.1 13.0 18.5 87 1022.5(2.3/3h) 20 7/8 -- --
06:00 9.3 7.9 7.8 SSO 9.3 13.0 20.4 90 1021.6(0.9/3h) 20 7/8 0/12h
--
05:00 9.4 7.7 7.3 SSO 11.1 11.1 20.4 87 1020.9(0.6/3h) 20 6/8 -- --
04:00 10.1 8.6 7.6 SSO 11.1 13.0 20.4 84 1020.1(0.4/3h) 20 7/8 -- --
03:00 9.7 8.4 7.8 SSO 9.3 11.1 18.5 88 1020.6(0.9/3h) 20 7/8 -- --
02:00 9.2 7.5 7.8 S 11.1 11.1 18.5 91 1020.3(0.8/3h) 20 7/8 -- --
01:00 9.1 7.4 7.7 S 11.1 11.1 14.8 91 1019.8(0.4/3h) 30 7/8 -- --
00:00 9.0 8 7.8 S 7.4 9.3 16.7 92 1019.6(0.8/3h) 30 7/8 0/6h
3.1/24h
--

1 Coordinated Universal Time. Actuellement il est 07:00 locale et 05:00 UTC.

2 Le vent souffle depuis la direction indiquée vers la direction oposée.

3 Les rafales max. sont disponible 40 min après l'heure du relevé.

4 Pour les stations d'altitude (plus de 600m) le géopotentiel du niveau le plus proche de la pression obligatoire est indiqué.

5 Les stations disposant d'un diffuseur peuvent indiquer "trace". Cela signifie que des précipitations ont touchés le sol mais que la quantité est inférieure à 0.1 mm.

Récapitulatif de la journée
Température [°C] Vent [km/h] Ensoleillement4 [h] Precipitations totale5 [mm] Pression [Hpa]
Min1 Max.2 Moy.3 Max. Min Max.
8.5 12.4 12.7 25.9 0 h 0 min 0 1019.6 1030.2

1 Température minimale relevée entre 18:00 UTC la veille et 18:00 UTC le jour donné.

2 Température maximale relevée entre 06:00 UTC le jour donné et 06:00 UTC le lendemain.

3 Vent moyen de la journée basé sur les relevés horaires.

4 Ensoleillement en heures relevé entre 06:00 UTC la veille et 06:00 UTC le jour donné.

5 Précipitations totales tombées entre 06:00 UTC la jour donné et 06:00 UTC le lendemain.

Graphiques horaires